Time;durP1;ratioP1;P1;durP2;ratioP2;P2;SDS_P1;SDS_P2;PMS_P1;PMS_P2;Temp;Humidity;BMP_temperature;BMP_pressure;BME280_temperature;BME280_humidity;BME280_pressure;Samples;Min_cycle;Max_cycle;Signal;HPM_P1;HPM_P2
2024/04/17 00:00:43;;;;;;;;;;;;;;;;;;5483387;26;19939;-73
2024/04/17 00:03:09;;;;;;;;;;;;;;;;;;5483152;26;19935;-73
2024/04/17 00:05:37;;;;;;;;;;;;;;;;;;5482520;26;19928;-74
2024/04/17 00:08:03;;;;;;;;;;;;;;;;;;5478736;26;19928;-74
2024/04/17 00:10:32;;;;;;;;;;;;;;;;;;5478897;26;19935;-73
2024/04/17 00:12:58;;;;;;;;;;;;;;;;;;5480258;26;20351;-73
2024/04/17 00:15:27;;;;;;;;;;;;;;;;;;5481941;26;19932;-73
2024/04/17 00:17:53;;;;;;;;;;;;;;;;;;5483320;26;19928;-73
2024/04/17 00:20:22;;;;;;;;;;;;;;;;;;5482775;26;20051;-73
2024/04/17 00:22:48;;;;;;;;;;;;;;;;;;5477224;26;19927;-72
2024/04/17 00:25:16;;;;;;;;;;;;;;;;;;5477956;26;20478;-72
2024/04/17 00:27:42;;;;;;;;;;;;;;;;;;5482572;26;19928;-72
2024/04/17 00:30:11;;;;;;;;;;;;;;;;;;5474421;26;20401;-74
2024/04/17 00:32:37;;;;;;;;;;;;;;;;;;5483074;26;19928;-74
2024/04/17 00:35:06;;;;;;;;;;;;;;;;;;5482181;26;19946;-73
2024/04/17 00:37:32;;;;;;;;;;;;;;;;;;5482157;26;19935;-73
2024/04/17 00:40:00;;;;;;;;;;;;;;;;;;5480376;26;20349;-73
2024/04/17 00:42:26;;;;;;;;;;;;;;;;;;5470437;26;20294;-73
2024/04/17 00:44:55;;;;;;;;;;;;;;;;;;5456637;26;19929;-73
2024/04/17 00:47:21;;;;;;;;;;;;;;;;;;5481643;26;19928;-73
2024/04/17 00:49:50;;;;;;;;;;;;;;;;;;5483230;26;20395;-73
2024/04/17 00:52:16;;;;;;;;;;;;;;;;;;5464215;26;19936;-73
2024/04/17 00:54:44;;;;;;;;;;;;;;;;;;5462999;26;19928;-73
2024/04/17 00:57:10;;;;;;;;;;;;;;;;;;5477697;26;19932;-73
2024/04/17 00:59:39;;;;;;;;;;;;;;;;;;5482375;26;19928;-73
2024/04/17 01:02:05;;;;;;;;;;;;;;;;;;5481082;26;19928;-72
2024/04/17 01:04:33;;;;;;;;;;;;;;;;;;5478964;26;20378;-72
2024/04/17 01:07:00;;;;;;;;;;;;;;;;;;5481903;26;19939;-73
2024/04/17 01:09:28;;;;;;;;;;;;;;;;;;5482339;26;19928;-72
2024/04/17 01:11:54;;;;;;;;;;;;;;;;;;5481899;26;20275;-72
2024/04/17 01:14:23;;;;;;;;;;;;;;;;;;5481327;26;19935;-73
2024/04/17 01:16:49;;;;;;;;;;;;;;;;;;5484034;26;19928;-73
2024/04/17 01:19:17;;;;;;;;;;;;;;;;;;5483847;26;20367;-73
2024/04/17 01:21:43;;;;;;;;;;;;;;;;;;5477032;26;19928;-73
2024/04/17 01:24:12;;;;;;;;;;;;;;;;;;5485216;26;19935;-74
2024/04/17 01:26:38;;;;;;;;;;;;;;;;;;5487625;26;19928;-73
2024/04/17 01:29:07;;;;;;;;;;;;;;;;;;5488228;26;19932;-74
2024/04/17 01:31:33;;;;;;;;;;;;;;;;;;5486031;26;19943;-73
2024/04/17 01:34:01;;;;;;;;;;;;;;;;;;5482879;26;20568;-73
2024/04/17 01:36:27;;;;;;;;;;;;;;;;;;5483673;26;19938;-73
2024/04/17 01:38:56;;;;;;;;;;;;;;;;;;5482132;26;19940;-73
2024/04/17 01:41:22;;;;;;;;;;;;;;;;;;5482723;26;19928;-73
2024/04/17 01:43:51;;;;;;;;;;;;;;;;;;5482391;26;19938;-74
2024/04/17 01:46:17;;;;;;;;;;;;;;;;;;5481662;26;19935;-75
2024/04/17 01:48:45;;;;;;;;;;;;;;;;;;5480353;26;20418;-74
2024/04/17 01:51:11;;;;;;;;;;;;;;;;;;5482958;26;20363;-75
2024/04/17 01:53:40;;;;;;;;;;;;;;;;;;5471817;26;19967;-74
2024/04/17 01:56:06;;;;;;;;;;;;;;;;;;5481088;26;19939;-73
2024/04/17 01:58:35;;;;;;;;;;;;;;;;;;5480842;26;19928;-73
2024/04/17 02:01:01;;;;;;;;;;;;;;;;;;5477144;26;19958;-73
2024/04/17 02:03:29;;;;;;;;;;;;;;;;;;5476599;26;20437;-74
2024/04/17 02:05:55;;;;;;;;;;;;;;;;;;5471481;26;19931;-73
2024/04/17 02:08:24;;;;;;;;;;;;;;;;;;5481820;26;19936;-74
2024/04/17 02:10:50;;;;;;;;;;;;;;;;;;5480900;26;19928;-73
2024/04/17 02:13:18;;;;;;;;;;;;;;;;;;5481533;26;20454;-74
2024/04/17 02:15:44;;;;;;;;;;;;;;;;;;5483488;26;20274;-75
2024/04/17 02:18:13;;;;;;;;;;;;;;;;;;5484095;26;20434;-74
2024/04/17 02:20:39;;;;;;;;;;;;;;;;;;5484129;26;19970;-74
2024/04/17 02:23:08;;;;;;;;;;;;;;;;;;5482862;26;19940;-74
2024/04/17 02:25:34;;;;;;;;;;;;;;;;;;5483888;26;19932;-74
2024/04/17 02:28:02;;;;;;;;;;;;;;;;;;5483532;26;19934;-76
2024/04/17 02:30:28;;;;;;;;;;;;;;;;;;5476649;26;19936;-74
2024/04/17 02:32:57;;;;;;;;;;;;;;;;;;5484610;26;20033;-75
2024/04/17 02:35:23;;;;;;;;;;;;;;;;;;5480338;26;20291;-74
2024/04/17 02:37:52;;;;;;;;;;;;;;;;;;5483949;26;19928;-74
2024/04/17 02:40:18;;;;;;;;;;;;;;;;;;5482263;26;19928;-73
2024/04/17 02:42:47;;;;;;;;;;;;;;;;;;5483953;26;20020;-73
2024/04/17 02:45:13;;;;;;;;;;;;;;;;;;5486231;26;19928;-75
2024/04/17 02:47:41;;;;;;;;;;;;;;;;;;5483988;26;20328;-75
2024/04/17 02:50:07;;;;;;;;;;;;;;;;;;5478666;26;19936;-75
2024/04/17 02:52:36;;;;;;;;;;;;;;;;;;5484565;26;20293;-75
2024/04/17 02:55:02;;;;;;;;;;;;;;;;;;5481730;26;19928;-75
2024/04/17 02:57:31;;;;;;;;;;;;;;;;;;5473547;26;19932;-74
2024/04/17 02:59:57;;;;;;;;;;;;;;;;;;5484911;26;19928;-74
2024/04/17 03:02:26;;;;;;;;;;;;;;;;;;5469499;26;19936;-75
2024/04/17 03:04:51;;;;;;;;;;;;;;;;;;5467873;26;20334;-74
2024/04/17 03:07:20;;;;;;;;;;;;;;;;;;5485003;26;20398;-74
2024/04/17 03:09:46;;;;;;;;;;;;;;;;;;5474695;26;19932;-74
2024/04/17 03:12:15;;;;;;;;;;;;;;;;;;5483516;26;19928;-74
2024/04/17 03:14:41;;;;;;;;;;;;;;;;;;5482639;26;19932;-75
2024/04/17 03:17:09;;;;;;;;;;;;;;;;;;5483853;26;20379;-74
2024/04/17 03:19:35;;;;;;;;;;;;;;;;;;5484235;26;19928;-74
2024/04/17 03:22:04;;;;;;;;;;;;;;;;;;5484161;26;20236;-73
2024/04/17 03:24:30;;;;;;;;;;;;;;;;;;5482973;26;19935;-73
2024/04/17 03:26:59;;;;;;;;;;;;;;;;;;5483697;26;19928;-73
2024/04/17 03:29:25;;;;;;;;;;;;;;;;;;5484598;26;19932;-73
2024/04/17 03:31:53;;;;;;;;;;;;;;;;;;5481086;26;19938;-75
2024/04/17 03:34:19;;;;;;;;;;;;;;;;;;5484436;26;19932;-74
2024/04/17 03:36:48;;;;;;;;;;;;;;;;;;5483257;26;20481;-73
2024/04/17 03:39:17;;;;;;;;;;;;;;;;;;5484069;26;19935;-74
2024/04/17 03:41:45;;;;;;;;;;;;;;;;;;5485567;26;20252;-71
2024/04/17 03:44:14;;;;;;;;;;;;;;;;;;5472612;26;19928;-74
2024/04/17 03:46:43;;;;;;;;;;;;;;;;;;5485680;26;19943;-72
2024/04/17 03:49:11;;;;;;;;;;;;;;;;;;5482270;26;19928;-73
2024/04/17 03:51:37;;;;;;;;;;;;;;;;;;5485638;26;19928;-74
2024/04/17 03:54:06;;;;;;;;;;;;;;;;;;5486577;26;20485;-73
2024/04/17 03:56:32;;;;;;;;;;;;;;;;;;5483595;26;19939;-73
2024/04/17 03:59:00;;;;;;;;;;;;;;;;;;5484494;26;19938;-74
2024/04/17 04:01:27;;;;;;;;;;;;;;;;;;5483147;26;20283;-74
2024/04/17 04:03:55;;;;;;;;;;;;;;;;;;5484854;26;20035;-75
2024/04/17 04:06:21;;;;;;;;;;;;;;;;;;5483148;26;19962;-75
2024/04/17 04:08:50;;;;;;;;;;;;;;;;;;5484430;26;19933;-74
2024/04/17 04:11:16;;;;;;;;;;;;;;;;;;5481366;26;20378;-75
2024/04/17 04:13:44;;;;;;;;;;;;;;;;;;5483879;26;19928;-75
2024/04/17 04:16:11;;;;;;;;;;;;;;;;;;5482751;26;19995;-75
2024/04/17 04:18:39;;;;;;;;;;;;;;;;;;5483660;26;19928;-75
2024/04/17 04:21:05;;;;;;;;;;;;;;;;;;5473619;26;19928;-75
2024/04/17 04:23:34;;;;;;;;;;;;;;;;;;5485157;26;19934;-75
2024/04/17 04:26:00;;;;;;;;;;;;;;;;;;5466028;26;19928;-75
2024/04/17 04:28:28;;;;;;;;;;;;;;;;;;5476733;26;19929;-74
2024/04/17 04:30:55;;;;;;;;;;;;;;;;;;5484125;26;19941;-74
2024/04/17 04:33:25;;;;;;;;;;;;;;;;;;5481868;26;20298;-75
2024/04/17 04:35:51;;;;;;;;;;;;;;;;;;5483093;26;19935;-72
2024/04/17 04:38:20;;;;;;;;;;;;;;;;;;5476239;26;19932;-73
2024/04/17 04:40:46;;;;;;;;;;;;;;;;;;5468300;26;19928;-73
2024/04/17 04:43:15;;;;;;;;;;;;;;;;;;5484837;26;19938;-72
2024/04/17 04:45:41;;;;;;;;;;;;;;;;;;5483513;26;19935;-73
2024/04/17 04:48:09;;;;;;;;;;;;;;;;;;5472530;26;19928;-69
2024/04/17 04:50:35;;;;;;;;;;;;;;;;;;5481918;26;19939;-73
2024/04/17 04:53:04;;;;;;;;;;;;;;;;;;5483442;26;19932;-73
2024/04/17 04:55:30;;;;;;;;;;;;;;;;;;5480210;26;19947;-73
2024/04/17 04:57:59;;;;;;;;;;;;;;;;;;5478022;26;19928;-75
2024/04/17 05:00:25;;;;;;;;;;;;;;;;;;5482418;26;20291;-73
2024/04/17 05:02:53;;;;;;;;;;;;;;;;;;5481345;26;20001;-73
2024/04/17 05:05:19;;;;;;;;;;;;;;;;;;5478464;26;19932;-74
2024/04/17 05:07:48;;;;;;;;;;;;;;;;;;5473435;26;19936;-73
2024/04/17 05:10:14;;;;;;;;;;;;;;;;;;5480363;26;20389;-73
2024/04/17 05:12:43;;;;;;;;;;;;;;;;;;5478016;26;19928;-74
2024/04/17 05:15:09;;;;;;;;;;;;;;;;;;5479838;26;22666;-73
2024/04/17 05:17:38;;;;;;;;;;;;;;;;;;5478870;26;19928;-71
2024/04/17 05:20:07;;;;;;;;;;;;;;;;;;5479217;26;20497;-71
2024/04/17 05:22:33;;;;;;;;;;;;;;;;;;5479702;26;19939;-71
2024/04/17 05:25:01;;;;;;;;;;;;;;;;;;5478742;26;20302;-72
2024/04/17 05:27:27;;;;;;;;;;;;;;;;;;5476572;26;19932;-71
2024/04/17 05:29:56;;;;;;;;;;;;;;;;;;5477129;26;19938;-73
2024/04/17 05:32:22;;;;;;;;;;;;;;;;;;5478624;26;19927;-72
2024/04/17 05:34:51;;;;;;;;;;;;;;;;;;5479614;26;20421;-72
2024/04/17 05:37:17;;;;;;;;;;;;;;;;;;5465716;26;19928;-72
2024/04/17 05:39:45;;;;;;;;;;;;;;;;;;5477402;26;20012;-72
2024/04/17 05:42:11;;;;;;;;;;;;;;;;;;5479245;26;19932;-71
2024/04/17 05:44:40;;;;;;;;;;;;;;;;;;5481009;26;20321;-72
2024/04/17 05:47:06;;;;;;;;;;;;;;;;;;5472499;26;19928;-71
2024/04/17 05:49:35;;;;;;;;;;;;;;;;;;5475983;26;19955;-71
2024/04/17 05:52:01;;;;;;;;;;;;;;;;;;5472297;26;20291;-70
2024/04/17 05:54:29;;;;;;;;;;;;;;;;;;5471574;26;19928;-71
2024/04/17 05:56:55;;;;;;;;;;;;;;;;;;5485636;26;19928;-72
2024/04/17 05:59:24;;;;;;;;;;;;;;;;;;5469257;26;20006;-71
2024/04/17 06:01:51;;;;;;;;;;;;;;;;;;5452291;26;19929;-70
2024/04/17 06:04:20;;;;;;;;;;;;;;;;;;5450448;26;20371;-70
2024/04/17 06:06:46;;;;;;;;;;;;;;;;;;5479414;26;20377;-71
2024/04/17 06:09:14;;;;;;;;;;;;;;;;;;5479949;26;19928;-71
2024/04/17 06:11:40;;;;;;;;;;;;;;;;;;5474240;26;19943;-71
2024/04/17 06:14:09;;;;;;;;;;;;;;;;;;5462136;26;19956;-70
2024/04/17 06:16:35;;;;;;;;;;;;;;;;;;5468753;26;19936;-71
2024/04/17 06:19:04;;;;;;;;;;;;;;;;;;5468528;26;19934;-71
2024/04/17 06:21:30;;;;;;;;;;;;;;;;;;5459935;26;19929;-71
2024/04/17 06:23:58;;;;;;;;;;;;;;;;;;5445574;26;20024;-69
2024/04/17 06:26:24;;;;;;;;;;;;;;;;;;5474193;26;19928;-72
2024/04/17 06:28:53;;;;;;;;;;;;;;;;;;5462247;26;19943;-71
2024/04/17 06:31:19;;;;;;;;;;;;;;;;;;5465613;26;19928;-71
2024/04/17 06:33:48;;;;;;;;;;;;;;;;;;5459252;26;19997;-71
2024/04/17 06:36:14;;;;;;;;;;;;;;;;;;5461771;26;20283;-70
2024/04/17 06:38:42;;;;;;;;;;;;;;;;;;5467088;26;20374;-71
2024/04/17 06:41:08;;;;;;;;;;;;;;;;;;5467029;26;19936;-70
2024/04/17 06:43:37;;;;;;;;;;;;;;;;;;5475915;26;19935;-71
2024/04/17 06:46:03;;;;;;;;;;;;;;;;;;5479560;26;20039;-70
2024/04/17 06:48:32;;;;;;;;;;;;;;;;;;5480176;26;19936;-71
2024/04/17 06:50:58;;;;;;;;;;;;;;;;;;5479394;26;19935;-68
2024/04/17 06:53:26;;;;;;;;;;;;;;;;;;5494464;26;19927;-68
2024/04/17 06:55:53;;;;;;;;;;;;;;;;;;5467897;25;19928;-71
2024/04/17 06:58:22;;;;;;;;;;;;;;;;;;5476952;26;19936;-73
2024/04/17 07:00:48;;;;;;;;;;;;;;;;;;5464188;26;19935;-73
2024/04/17 07:03:16;;;;;;;;;;;;;;;;;;5468482;26;19960;-70
2024/04/17 07:05:42;;;;;;;;;;;;;;;;;;5459279;26;19928;-74
2024/04/17 07:08:11;;;;;;;;;;;;;;;;;;5473792;26;19953;-73
2024/04/17 07:10:37;;;;;;;;;;;;;;;;;;5479472;26;19927;-74
2024/04/17 07:13:06;;;;;;;;;;;;;;;;;;5467732;26;19934;-73
2024/04/17 07:15:32;;;;;;;;;;;;;;;;;;5477505;26;20391;-71
2024/04/17 07:18:00;;;;;;;;;;;;;;;;;;5483364;26;19931;-73
2024/04/17 07:20:26;;;;;;;;;;;;;;;;;;5464184;26;20466;-70
2024/04/17 07:22:55;;;;;;;;;;;;;;;;;;5480424;26;19928;-71
2024/04/17 07:25:21;;;;;;;;;;;;;;;;;;5478413;26;20363;-71
2024/04/17 07:27:49;;;;;;;;;;;;;;;;;;5445093;26;19928;-70
2024/04/17 07:30:15;;;;;;;;;;;;;;;;;;5470333;26;19939;-70
2024/04/17 07:32:44;;;;;;;;;;;;;;;;;;5465757;26;19932;-71
2024/04/17 07:35:10;;;;;;;;;;;;;;;;;;5455245;26;20367;-71
2024/04/17 07:37:39;;;;;;;;;;;;;;;;;;5470756;26;19928;-72
2024/04/17 07:40:05;;;;;;;;;;;;;;;;;;5456642;26;20371;-69
2024/04/17 07:42:33;;;;;;;;;;;;;;;;;;5477026;26;19976;-68
2024/04/17 07:44:59;;;;;;;;;;;;;;;;;;5469617;26;19932;-69
2024/04/17 07:47:28;;;;;;;;;;;;;;;;;;5475875;26;19928;-69
2024/04/17 07:49:54;;;;;;;;;;;;;;;;;;5471176;26;19938;-72
2024/04/17 07:52:23;;;;;;;;;;;;;;;;;;5477803;26;20371;-71
2024/04/17 07:54:49;;;;;;;;;;;;;;;;;;5472188;26;19927;-72
2024/04/17 07:57:17;;;;;;;;;;;;;;;;;;5487144;26;20323;-72
2024/04/17 07:59:43;;;;;;;;;;;;;;;;;;5475399;26;19943;-72
2024/04/17 08:02:12;;;;;;;;;;;;;;;;;;5466276;26;20545;-72
2024/04/17 08:04:38;;;;;;;;;;;;;;;;;;5467455;26;19928;-72
2024/04/17 08:07:07;;;;;;;;;;;;;;;;;;5473193;26;19944;-71
2024/04/17 08:09:33;;;;;;;;;;;;;;;;;;5454739;26;20363;-71
2024/04/17 08:12:02;;;;;;;;;;;;;;;;;;5479881;26;20217;-66
2024/04/17 08:14:28;;;;;;;;;;;;;;;;;;5459755;26;19927;-68
2024/04/17 08:16:56;;;;;;;;;;;;;;;;;;5468706;26;19935;-67
2024/04/17 08:19:22;;;;;;;;;;;;;;;;;;5478753;26;19935;-67
2024/04/17 08:21:51;;;;;;;;;;;;;;;;;;5488094;26;19932;-73
2024/04/17 08:24:17;;;;;;;;;;;;;;;;;;5455770;26;19928;-72
2024/04/17 08:26:46;;;;;;;;;;;;;;;;;;5480441;26;20020;-72
2024/04/17 08:29:12;;;;;;;;;;;;;;;;;;5479019;26;19928;-70
2024/04/17 08:31:41;;;;;;;;;;;;;;;;;;5452582;26;19929;-70
2024/04/17 08:34:07;;;;;;;;;;;;;;;;;;5458456;26;19928;-71
2024/04/17 08:36:36;;;;;;;;;;;;;;;;;;5467243;26;20403;-70
2024/04/17 08:39:02;;;;;;;;;;;;;;;;;;5446222;26;20051;-72
2024/04/17 08:41:31;;;;;;;;;;;;;;;;;;5450504;26;19935;-71
2024/04/17 08:43:57;;;;;;;;;;;;;;;;;;5459037;26;20132;-72
2024/04/17 08:46:26;;;;;;;;;;;;;;;;;;5460919;26;19929;-72
2024/04/17 08:48:52;;;;;;;;;;;;;;;;;;5477235;26;20253;-72
2024/04/17 08:51:20;;;;;;;;;;;;;;;;;;5477974;26;20399;-72
2024/04/17 08:53:47;;;;;;;;;;;;;;;;;;5472381;26;19928;-72
2024/04/17 08:56:15;;;;;;;;;;;;;;;;;;5477349;26;20121;-71
2024/04/17 08:58:41;;;;;;;;;;;;;;;;;;5471405;26;19927;-72
2024/04/17 09:01:10;;;;;;;;;;;;;;;;;;5458677;26;19936;-73
2024/04/17 09:03:36;;;;;;;;;;;;;;;;;;5475260;26;19928;-73
2024/04/17 09:06:05;;;;;;;;;;;;;;;;;;5466210;26;19936;-74
2024/04/17 09:08:31;;;;;;;;;;;;;;;;;;5468085;26;19928;-72
2024/04/17 09:10:59;;;;;;;;;;;;;;;;;;5478540;26;19928;-72
2024/04/17 09:13:26;;;;;;;;;;;;;;;;;;5479668;26;19935;-73
2024/04/17 09:15:54;;;;;;;;;;;;;;;;;;5464644;26;19928;-72
2024/04/17 09:18:20;;;;;;;;;;;;;;;;;;5476309;26;20267;-71
2024/04/17 09:20:49;;;;;;;;;;;;;;;;;;5480009;26;20340;-72
2024/04/17 09:23:15;;;;;;;;;;;;;;;;;;5473358;26;19936;-73
2024/04/17 09:25:44;;;;;;;;;;;;;;;;;;5455233;26;19946;-71
2024/04/17 09:28:11;;;;;;;;;;;;;;;;;;5476027;26;20359;-71
2024/04/17 09:30:40;;;;;;;;;;;;;;;;;;5492399;26;20348;-70
2024/04/17 09:33:06;;;;;;;;;;;;;;;;;;5450409;26;19929;-70
2024/04/17 09:35:35;;;;;;;;;;;;;;;;;;5468997;26;20004;-70
2024/04/17 09:38:02;;;;;;;;;;;;;;;;;;5472249;26;19935;-70
2024/04/17 09:40:31;;;;;;;;;;;;;;;;;;5490327;26;19939;-70
2024/04/17 09:42:57;;;;;;;;;;;;;;;;;;5475205;26;19935;-71
2024/04/17 09:45:26;;;;;;;;;;;;;;;;;;5459297;26;20402;-71
2024/04/17 09:47:52;;;;;;;;;;;;;;;;;;5481212;25;19932;-71
2024/04/17 09:50:21;;;;;;;;;;;;;;;;;;5488709;26;20000;-73
2024/04/17 09:52:47;;;;;;;;;;;;;;;;;;5472654;26;19929;-73
2024/04/17 09:55:16;;;;;;;;;;;;;;;;;;5487826;26;19944;-74
2024/04/17 09:57:42;;;;;;;;;;;;;;;;;;5467199;26;22975;-69
2024/04/17 10:00:11;;;;;;;;;;;;;;;;;;5479525;26;20470;-74
2024/04/17 10:02:37;;;;;;;;;;;;;;;;;;5475931;26;19927;-73
2024/04/17 10:05:06;;;;;;;;;;;;;;;;;;5508517;26;19927;-75
2024/04/17 10:07:32;;;;;;;;;;;;;;;;;;5497549;26;19935;-73
2024/04/17 10:10:00;;;;;;;;;;;;;;;;;;5505641;26;19932;-73
2024/04/17 10:12:27;;;;;;;;;;;;;;;;;;5487280;26;19998;-73
2024/04/17 10:14:55;;;;;;;;;;;;;;;;;;5480398;26;19981;-74
2024/04/17 10:17:21;;;;;;;;;;;;;;;;;;5475811;26;19935;-73
2024/04/17 10:19:50;;;;;;;;;;;;;;;;;;5473103;26;19928;-72
2024/04/17 10:22:16;;;;;;;;;;;;;;;;;;5476894;26;19934;-72
2024/04/17 10:24:45;;;;;;;;;;;;;;;;;;5477120;26;19967;-72
2024/04/17 10:27:11;;;;;;;;;;;;;;;;;;5472147;26;19943;-72
2024/04/17 10:29:40;;;;;;;;;;;;;;;;;;5474469;26;20379;-71
2024/04/17 10:32:06;;;;;;;;;;;;;;;;;;5458302;26;19936;-71
2024/04/17 10:34:34;;;;;;;;;;;;;;;;;;5455970;26;19960;-71
2024/04/17 10:37:00;;;;;;;;;;;;;;;;;;5477254;26;19927;-71
2024/04/17 10:39:29;;;;;;;;;;;;;;;;;;5480406;26;19932;-72
2024/04/17 10:41:55;;;;;;;;;;;;;;;;;;5465518;26;19928;-72
2024/04/17 10:44:24;;;;;;;;;;;;;;;;;;5485270;26;19928;-71
2024/04/17 10:46:50;;;;;;;;;;;;;;;;;;5491973;26;19927;-71
2024/04/17 10:49:18;;;;;;;;;;;;;;;;;;5478594;26;20347;-72
2024/04/17 10:51:44;;;;;;;;;;;;;;;;;;5469827;26;19929;-72
2024/04/17 10:54:13;;;;;;;;;;;;;;;;;;5466914;26;19929;-72
2024/04/17 10:56:39;;;;;;;;;;;;;;;;;;5459785;26;19928;-71
2024/04/17 10:59:08;;;;;;;;;;;;;;;;;;5489988;26;19927;-72
2024/04/17 11:01:34;;;;;;;;;;;;;;;;;;5487016;25;19932;-72
2024/04/17 11:04:03;;;;;;;;;;;;;;;;;;5462622;26;19928;-72
2024/04/17 11:06:29;;;;;;;;;;;;;;;;;;5473495;26;19928;-71
2024/04/17 11:08:57;;;;;;;;;;;;;;;;;;5481086;26;19936;-73
2024/04/17 11:11:23;;;;;;;;;;;;;;;;;;5483716;26;19935;-72
2024/04/17 11:13:52;;;;;;;;;;;;;;;;;;5478177;26;19935;-72
2024/04/17 11:16:18;;;;;;;;;;;;;;;;;;5472337;26;19928;-72
2024/04/17 11:18:47;;;;;;;;;;;;;;;;;;5481408;26;19938;-72
2024/04/17 11:21:13;;;;;;;;;;;;;;;;;;5477972;26;19927;-72
2024/04/17 11:23:42;;;;;;;;;;;;;;;;;;5473738;26;20332;-72
2024/04/17 11:26:08;;;;;;;;;;;;;;;;;;5466219;26;19962;-72
2024/04/17 11:28:37;;;;;;;;;;;;;;;;;;5458309;26;19928;-72
2024/04/17 11:31:03;;;;;;;;;;;;;;;;;;5476321;26;19957;-72
2024/04/17 11:33:32;;;;;;;;;;;;;;;;;;5465000;26;19928;-72
2024/04/17 11:35:58;;;;;;;;;;;;;;;;;;5463984;26;19952;-74
2024/04/17 11:38:28;;;;;;;;;;;;;;;;;;5457741;26;20480;-72
2024/04/17 11:40:54;;;;;;;;;;;;;;;;;;5456520;26;20425;-70
2024/04/17 11:43:23;;;;;;;;;;;;;;;;;;5454542;26;19928;-71
2024/04/17 11:45:49;;;;;;;;;;;;;;;;;;5475731;26;20481;-71
2024/04/17 11:48:17;;;;;;;;;;;;;;;;;;5473932;26;20310;-72
2024/04/17 11:50:43;;;;;;;;;;;;;;;;;;5472250;26;19935;-72
2024/04/17 11:53:12;;;;;;;;;;;;;;;;;;5465455;26;19929;-71
2024/04/17 11:55:38;;;;;;;;;;;;;;;;;;5463194;26;19935;-72
2024/04/17 11:58:07;;;;;;;;;;;;;;;;;;5475642;26;20432;-71
2024/04/17 12:00:33;;;;;;;;;;;;;;;;;;5473344;26;20141;-71
2024/04/17 12:03:02;;;;;;;;;;;;;;;;;;5469006;26;20509;-71
2024/04/17 12:05:28;;;;;;;;;;;;;;;;;;5456824;26;19928;-70
2024/04/17 12:07:57;;;;;;;;;;;;;;;;;;5460122;26;19932;-70
2024/04/17 12:10:23;;;;;;;;;;;;;;;;;;5472083;26;19936;-70
2024/04/17 12:12:51;;;;;;;;;;;;;;;;;;5473214;26;20287;-71
2024/04/17 12:15:18;;;;;;;;;;;;;;;;;;5470059;26;20034;-70
2024/04/17 12:17:46;;;;;;;;;;;;;;;;;;5459801;26;19927;-70
2024/04/17 12:20:12;;;;;;;;;;;;;;;;;;5466650;26;20319;-71
2024/04/17 12:22:41;;;;;;;;;;;;;;;;;;5469394;26;19956;-71
2024/04/17 12:27:54;;;;;;;;;;;;;;;;;;5479520;26;19935;-73
2024/04/17 12:30:23;;;;;;;;;;;;;;;;;;5475275;26;19939;-72
2024/04/17 12:32:52;;;;;;;;;;;;;;;;;;5469652;26;19928;-72
2024/04/17 12:35:20;;;;;;;;;;;;;;;;;;5478171;26;20394;-73
2024/04/17 12:37:46;;;;;;;;;;;;;;;;;;5477051;26;19936;-73
2024/04/17 12:40:15;;;;;;;;;;;;;;;;;;5474507;26;19928;-73
2024/04/17 12:42:44;;;;;;;;;;;;;;;;;;5484245;26;19928;-73
2024/04/17 12:45:13;;;;;;;;;;;;;;;;;;5476185;26;20174;-74
2024/04/17 12:47:39;;;;;;;;;;;;;;;;;;5466662;26;19939;-73
2024/04/17 12:50:07;;;;;;;;;;;;;;;;;;5482762;26;19943;-73
2024/04/17 12:52:35;;;;;;;;;;;;;;;;;;5469928;26;20358;-73
2024/04/17 12:55:04;;;;;;;;;;;;;;;;;;5482849;26;19934;-73
2024/04/17 12:57:33;;;;;;;;;;;;;;;;;;5479166;26;19936;-73
2024/04/17 12:59:59;;;;;;;;;;;;;;;;;;5480208;26;19935;-69
2024/04/17 13:02:27;;;;;;;;;;;;;;;;;;5466721;26;19932;-72
2024/04/17 13:04:53;;;;;;;;;;;;;;;;;;5467132;26;20485;-72
2024/04/17 13:07:22;;;;;;;;;;;;;;;;;;5467027;26;20250;-72
2024/04/17 13:09:48;;;;;;;;;;;;;;;;;;5463092;26;20397;-72
2024/04/17 13:12:17;;;;;;;;;;;;;;;;;;5479402;26;20094;-71
2024/04/17 13:14:43;;;;;;;;;;;;;;;;;;5480313;26;19938;-72
2024/04/17 13:17:11;;;;;;;;;;;;;;;;;;5468380;26;19928;-74
2024/04/17 13:19:37;;;;;;;;;;;;;;;;;;5470215;26;19928;-70
2024/04/17 13:22:06;;;;;;;;;;;;;;;;;;5463242;26;19928;-70
2024/04/17 13:24:32;;;;;;;;;;;;;;;;;;5472791;26;20275;-72
2024/04/17 13:27:01;;;;;;;;;;;;;;;;;;5472474;26;20014;-71
2024/04/17 13:29:31;;;;;;;;;;;;;;;;;;5466816;26;19928;-71
2024/04/17 13:31:59;;;;;;;;;;;;;;;;;;5460145;26;20005;-73
2024/04/17 13:34:25;;;;;;;;;;;;;;;;;;5467420;26;20371;-72
2024/04/17 13:36:54;;;;;;;;;;;;;;;;;;5468590;26;20367;-73
2024/04/17 13:39:20;;;;;;;;;;;;;;;;;;5463929;26;19928;-74
2024/04/17 13:41:49;;;;;;;;;;;;;;;;;;5471358;26;19928;-74
2024/04/17 13:44:15;;;;;;;;;;;;;;;;;;5465067;26;19927;-73
2024/04/17 13:46:44;;;;;;;;;;;;;;;;;;5476146;26;19928;-73
2024/04/17 13:49:10;;;;;;;;;;;;;;;;;;5464082;26;19937;-73
2024/04/17 13:51:38;;;;;;;;;;;;;;;;;;5468896;26;19956;-72
2024/04/17 13:54:04;;;;;;;;;;;;;;;;;;5465177;26;19928;-73
2024/04/17 13:56:33;;;;;;;;;;;;;;;;;;5478017;26;19972;-73
2024/04/17 13:58:59;;;;;;;;;;;;;;;;;;5476444;26;20263;-72
2024/04/17 14:01:28;;;;;;;;;;;;;;;;;;5474161;26;19928;-71
2024/04/17 14:03:54;;;;;;;;;;;;;;;;;;5455745;26;20058;-72
2024/04/17 14:06:23;;;;;;;;;;;;;;;;;;5476720;26;20389;-72
2024/04/17 14:08:49;;;;;;;;;;;;;;;;;;5478879;26;20391;-72
2024/04/17 14:11:17;;;;;;;;;;;;;;;;;;5489283;26;19927;-72
2024/04/17 14:13:46;;;;;;;;;;;;;;;;;;5484388;26;19943;-72
2024/04/17 14:16:13;;;;;;;;;;;;;;;;;;5491727;26;19936;-72
2024/04/17 14:18:41;;;;;;;;;;;;;;;;;;5478639;26;20298;-73
2024/04/17 14:21:10;;;;;;;;;;;;;;;;;;5468528;26;19935;-71
2024/04/17 14:23:39;;;;;;;;;;;;;;;;;;5477268;26;19928;-72
2024/04/17 14:26:05;;;;;;;;;;;;;;;;;;5481295;26;19941;-71
2024/04/17 14:28:34;;;;;;;;;;;;;;;;;;5484235;26;20446;-71
2024/04/17 14:31:00;;;;;;;;;;;;;;;;;;5475281;26;19943;-71
2024/04/17 14:33:29;;;;;;;;;;;;;;;;;;5460473;26;20445;-72
2024/04/17 14:35:55;;;;;;;;;;;;;;;;;;5463662;26;19928;-72
2024/04/17 14:38:23;;;;;;;;;;;;;;;;;;5467748;26;19938;-70
2024/04/17 14:40:50;;;;;;;;;;;;;;;;;;5474697;26;19934;-71
2024/04/17 14:43:18;;;;;;;;;;;;;;;;;;5462252;26;19928;-71
2024/04/17 14:45:44;;;;;;;;;;;;;;;;;;5468970;26;19928;-72
2024/04/17 14:48:13;;;;;;;;;;;;;;;;;;5480368;26;19927;-72
2024/04/17 14:50:39;;;;;;;;;;;;;;;;;;5480188;26;19992;-72
2024/04/17 14:53:08;;;;;;;;;;;;;;;;;;5476281;26;20268;-72
2024/04/17 14:55:34;;;;;;;;;;;;;;;;;;5481489;26;19928;-74
2024/04/17 14:58:02;;;;;;;;;;;;;;;;;;5464320;26;19928;-71
2024/04/17 15:00:29;;;;;;;;;;;;;;;;;;5465058;26;19947;-71
2024/04/17 15:02:57;;;;;;;;;;;;;;;;;;5478087;26;20535;-71
2024/04/17 15:05:23;;;;;;;;;;;;;;;;;;5475384;26;19935;-71
2024/04/17 15:07:52;;;;;;;;;;;;;;;;;;5475354;26;19932;-70
2024/04/17 15:10:21;;;;;;;;;;;;;;;;;;5467506;26;19943;-71
2024/04/17 15:12:50;;;;;;;;;;;;;;;;;;5469507;26;19981;-71
2024/04/17 15:15:16;;;;;;;;;;;;;;;;;;5461237;26;19928;-71
2024/04/17 15:17:45;;;;;;;;;;;;;;;;;;5478968;26;20266;-71
2024/04/17 15:20:11;;;;;;;;;;;;;;;;;;5480947;26;19935;-70
2024/04/17 15:22:40;;;;;;;;;;;;;;;;;;5473252;26;20449;-71
2024/04/17 15:25:06;;;;;;;;;;;;;;;;;;5475864;26;20355;-70
2024/04/17 15:27:35;;;;;;;;;;;;;;;;;;5471600;26;19928;-71
2024/04/17 15:30:01;;;;;;;;;;;;;;;;;;5474929;26;20829;-70
2024/04/17 15:32:30;;;;;;;;;;;;;;;;;;5465135;26;20036;-71
2024/04/17 15:34:57;;;;;;;;;;;;;;;;;;5462398;26;20443;-71
2024/04/17 15:37:26;;;;;;;;;;;;;;;;;;5465509;26;19932;-70
2024/04/17 15:39:52;;;;;;;;;;;;;;;;;;5475554;26;20382;-70
2024/04/17 15:42:21;;;;;;;;;;;;;;;;;;5470143;26;19928;-70
2024/04/17 15:44:47;;;;;;;;;;;;;;;;;;5470543;26;20418;-70
2024/04/17 15:47:21;;;;;;;;;;;;;;;;;;5467783;26;19935;-71
2024/04/17 15:49:47;;;;;;;;;;;;;;;;;;5470315;26;19935;-70
2024/04/17 15:52:16;;;;;;;;;;;;;;;;;;5477220;26;19935;-70
2024/04/17 15:54:47;;;;;;;;;;;;;;;;;;5470118;26;20359;-70
2024/04/17 15:57:16;;;;;;;;;;;;;;;;;;5465487;26;20117;-71
2024/04/17 15:59:42;;;;;;;;;;;;;;;;;;5471180;26;19932;-71
2024/04/17 16:02:11;;;;;;;;;;;;;;;;;;5487172;26;19928;-71
2024/04/17 16:04:38;;;;;;;;;;;;;;;;;;5482679;26;20008;-70
2024/04/17 16:07:07;;;;;;;;;;;;;;;;;;5475468;26;19929;-70
2024/04/17 16:09:33;;;;;;;;;;;;;;;;;;5471516;26;19935;-71
2024/04/17 16:12:02;;;;;;;;;;;;;;;;;;5471335;26;19929;-71
2024/04/17 16:14:28;;;;;;;;;;;;;;;;;;5472150;26;19941;-71
2024/04/17 16:16:58;;;;;;;;;;;;;;;;;;5474838;26;19932;-72
2024/04/17 16:19:24;;;;;;;;;;;;;;;;;;5464322;26;19932;-70
2024/04/17 16:21:56;;;;;;;;;;;;;;;;;;5474200;26;19928;-72
2024/04/17 16:24:22;;;;;;;;;;;;;;;;;;5468800;26;19937;-70
2024/04/17 16:26:51;;;;;;;;;;;;;;;;;;5474580;26;20371;-69
2024/04/17 16:29:17;;;;;;;;;;;;;;;;;;5465354;26;19928;-70
2024/04/17 16:31:47;;;;;;;;;;;;;;;;;;5460205;26;19997;-70
2024/04/17 16:34:14;;;;;;;;;;;;;;;;;;5465924;26;19936;-70
2024/04/17 16:36:42;;;;;;;;;;;;;;;;;;5458955;26;19932;-70
2024/04/17 16:39:09;;;;;;;;;;;;;;;;;;5461505;26;19927;-70
2024/04/17 16:41:38;;;;;;;;;;;;;;;;;;5460102;26;19932;-70
2024/04/17 16:44:04;;;;;;;;;;;;;;;;;;5480034;26;19928;-70
2024/04/17 16:46:36;;;;;;;;;;;;;;;;;;5469467;26;20371;-69
2024/04/17 16:49:02;;;;;;;;;;;;;;;;;;5474899;26;20215;-70